createdAt,value
2019-02-04T00:00:44.022Z,99.90
2019-02-04T00:05:40.264Z,99.90
2019-02-04T00:10:38.871Z,99.90
2019-02-04T00:15:32.866Z,99.90
2019-02-04T00:20:29.203Z,99.90
2019-02-04T00:25:27.776Z,99.90
2019-02-04T00:30:24.067Z,99.90
2019-02-04T00:35:22.246Z,99.90
2019-02-04T00:40:31.718Z,99.90
2019-02-04T00:45:29.503Z,99.90
2019-02-04T00:50:25.761Z,99.90
2019-02-04T00:55:25.580Z,99.90
2019-02-04T01:00:28.517Z,99.90
2019-02-04T01:05:26.024Z,99.90
2019-02-04T01:10:23.991Z,99.90
2019-02-04T01:15:24.702Z,99.90
2019-02-04T01:20:29.764Z,99.90
2019-02-04T01:25:27.500Z,99.90
2019-02-04T01:30:23.623Z,99.90
2019-02-04T01:35:21.887Z,99.90
2019-02-04T01:40:18.963Z,99.90
2019-02-04T01:45:16.434Z,99.90
2019-02-04T01:50:18.516Z,99.90
2019-02-04T01:55:11.892Z,99.90
2019-02-04T02:00:13.154Z,99.90
2019-02-04T02:05:18.519Z,99.90
2019-02-04T02:10:20.289Z,99.90
2019-02-04T02:15:19.227Z,99.90
2019-02-04T02:20:20.879Z,99.90
2019-02-04T02:25:19.192Z,99.90
2019-02-04T02:30:19.085Z,99.90
2019-02-04T02:35:19.831Z,99.90
2019-02-04T02:40:38.957Z,99.90
2019-02-04T02:45:36.386Z,99.90
2019-02-04T02:50:35.263Z,99.90
2019-02-04T02:55:29.295Z,99.90
2019-02-04T03:00:27.603Z,99.90
2019-02-04T03:05:23.428Z,99.90
2019-02-04T03:10:26.782Z,99.90
2019-02-04T03:15:27.165Z,99.90
2019-02-04T03:20:26.594Z,99.90
2019-02-04T03:25:21.922Z,99.90
2019-02-04T03:30:29.969Z,99.90
2019-02-04T03:35:25.071Z,99.90
2019-02-04T03:40:22.732Z,99.90
2019-02-04T03:45:19.362Z,99.90
2019-02-04T03:50:17.078Z,99.90
2019-02-04T03:55:19.485Z,99.90
2019-02-04T04:00:28.569Z,99.90
2019-02-04T04:05:27.115Z,99.90
2019-02-04T04:10:27.293Z,99.90
2019-02-04T04:15:25.600Z,99.90
2019-02-04T04:20:26.800Z,99.90
2019-02-04T04:25:23.594Z,99.90
2019-02-04T04:30:20.215Z,99.90
2019-02-04T04:35:23.231Z,99.90
2019-02-04T04:40:25.780Z,99.90
2019-02-04T04:45:27.434Z,99.90
2019-02-04T04:50:29.078Z,99.90
2019-02-04T04:55:31.660Z,99.90
2019-02-04T05:00:33.746Z,99.90
2019-02-04T05:05:30.242Z,99.90
2019-02-04T05:10:25.105Z,99.90
2019-02-04T05:15:30.552Z,99.90
2019-02-04T05:20:28.450Z,99.90
2019-02-04T05:25:23.959Z,99.90
2019-02-04T05:30:25.742Z,99.90
2019-02-04T05:35:23.119Z,99.90
2019-02-04T05:40:17.918Z,99.90
2019-02-04T05:45:15.321Z,99.90
2019-02-04T05:50:13.994Z,99.90
2019-02-04T05:55:11.711Z,99.90
2019-02-04T06:00:28.305Z,99.90
2019-02-04T06:05:25.032Z,99.90
2019-02-04T06:10:19.359Z,99.90
2019-02-04T06:15:15.906Z,99.90
2019-02-04T06:20:14.742Z,99.90
2019-02-04T06:25:09.562Z,99.90
2019-02-04T06:30:15.623Z,99.90
2019-02-04T06:35:12.705Z,99.90
2019-02-04T06:40:11.285Z,99.90
2019-02-04T06:45:08.611Z,99.90
2019-02-04T06:50:03.667Z,99.90
2019-02-04T06:54:57.545Z,99.90
2019-02-04T06:59:54.406Z,99.90
2019-02-04T07:04:49.015Z,99.90
2019-02-04T07:09:45.091Z,99.90
2019-02-04T07:14:42.565Z,99.90
2019-02-04T07:19:39.436Z,99.90
2019-02-04T07:24:42.488Z,99.90
2019-02-04T07:29:30.483Z,99.90
2019-02-04T07:34:24.958Z,99.90
2019-02-04T07:39:18.941Z,99.90
2019-02-04T07:44:14.831Z,99.90
2019-02-04T07:49:09.812Z,99.90
2019-02-04T07:54:03.711Z,99.90
2019-02-04T07:58:58.472Z,99.90
2019-02-04T08:03:56.055Z,99.90
2019-02-04T08:08:53.831Z,98.20
2019-02-04T08:13:50.462Z,95.10
2019-02-04T08:18:45.374Z,94.10
2019-02-04T08:23:49.508Z,92.10
2019-02-04T08:28:45.712Z,94.90
2019-02-04T08:33:40.652Z,97.60
2019-02-04T08:38:35.757Z,98.60
2019-02-04T08:43:30.356Z,99.90
2019-02-04T08:48:26.703Z,99.90
2019-02-04T08:53:21.977Z,99.90
2019-02-04T08:58:18.253Z,98.80
2019-02-04T09:03:12.942Z,96.60
2019-02-04T09:08:10.725Z,91.00
2019-02-04T09:13:08.622Z,81.90
2019-02-04T09:18:05.487Z,79.70
2019-02-04T09:23:00.389Z,79.00
2019-02-04T09:27:56.659Z,81.40
2019-02-04T09:32:52.490Z,76.00
2019-02-04T09:37:48.466Z,79.40
2019-02-04T09:42:43.731Z,80.50
2019-02-04T09:47:38.138Z,75.30
2019-02-04T09:52:32.747Z,67.00
2019-02-04T09:57:28.366Z,57.80
2019-02-04T10:02:22.472Z,60.70
2019-02-04T10:07:17.226Z,70.40
2019-02-04T10:12:12.336Z,76.30
2019-02-04T10:17:06.729Z,66.40
2019-02-04T10:22:01.767Z,58.20
2019-02-04T10:26:59.815Z,56.80
2019-02-04T10:31:59.064Z,56.40
2019-02-04T10:36:52.898Z,57.80
2019-02-04T10:41:47.567Z,57.10
2019-02-04T10:46:41.949Z,66.20
2019-02-04T10:51:37.944Z,74.10
2019-02-04T10:56:36.133Z,63.90
2019-02-04T11:01:31.433Z,59.40
2019-02-04T11:06:31.175Z,58.40
2019-02-04T11:11:25.148Z,58.10
2019-02-04T11:16:20.897Z,56.70
2019-02-04T11:21:15.752Z,55.50
2019-02-04T11:26:15.441Z,53.60
2019-02-04T11:31:10.019Z,53.80
2019-02-04T11:36:11.993Z,53.80
2019-02-04T11:41:10.100Z,52.00
2019-02-04T11:46:07.650Z,53.30
2019-02-04T11:51:09.779Z,55.60
2019-02-04T11:56:05.019Z,55.30
2019-02-04T12:01:16.617Z,57.00
2019-02-04T12:06:11.027Z,64.00
2019-02-04T12:11:09.668Z,71.60
2019-02-04T12:16:05.646Z,82.20
2019-02-04T12:21:05.846Z,90.00
2019-02-04T12:26:00.176Z,94.70
2019-02-04T12:30:54.602Z,98.60
2019-02-04T12:35:48.899Z,99.90
2019-02-04T12:40:43.296Z,99.90
2019-02-04T12:45:40.343Z,99.90
2019-02-04T12:50:36.096Z,99.90
2019-02-04T12:55:37.653Z,99.90
2019-02-04T13:00:33.391Z,99.90
2019-02-04T13:05:46.441Z,99.90
2019-02-04T13:10:51.971Z,99.90
2019-02-04T13:15:48.748Z,99.90
2019-02-04T13:20:43.266Z,99.90
2019-02-04T13:25:38.520Z,99.90
2019-02-04T13:30:32.790Z,99.90
2019-02-04T13:35:31.011Z,99.90
2019-02-04T13:40:29.587Z,99.90
2019-02-04T13:45:25.321Z,99.90
2019-02-04T13:50:23.064Z,99.90
2019-02-04T13:55:31.301Z,99.90
2019-02-04T14:00:31.040Z,99.90
2019-02-04T14:05:27.355Z,99.90
2019-02-04T14:10:24.360Z,99.90
2019-02-04T14:15:22.487Z,99.90
2019-02-04T14:20:23.025Z,99.90
2019-02-04T14:25:17.766Z,99.90
2019-02-04T14:30:32.542Z,99.90
2019-02-04T14:35:28.526Z,99.90
2019-02-04T14:40:24.262Z,99.90
2019-02-04T14:45:22.599Z,99.90
2019-02-04T14:50:28.439Z,99.90
2019-02-04T14:55:33.491Z,99.90
2019-02-04T15:00:47.461Z,99.90
2019-02-04T15:05:49.279Z,99.90
2019-02-04T15:10:46.404Z,99.90
2019-02-04T15:15:49.778Z,99.90
2019-02-04T15:20:56.135Z,99.90
2019-02-04T15:26:27.787Z,99.90
2019-02-04T15:31:52.969Z,99.90
2019-02-04T15:37:09.902Z,99.90
2019-02-04T15:42:31.503Z,99.90
2019-02-04T15:47:22.454Z,99.90
2019-02-04T15:52:17.207Z,99.90
2019-02-04T15:57:12.043Z,99.90
2019-02-04T16:02:08.081Z,99.90
2019-02-04T16:07:03.229Z,99.90
2019-02-04T16:11:57.805Z,99.90
2019-02-04T16:16:52.573Z,99.90
2019-02-04T16:21:48.917Z,99.90
2019-02-04T16:26:44.511Z,99.90
2019-02-04T16:31:39.395Z,99.90
2019-02-04T16:36:36.806Z,99.90
2019-02-04T16:41:35.284Z,99.90
2019-02-04T16:46:30.155Z,99.90
2019-02-04T16:51:26.409Z,99.90
2019-02-04T16:56:22.346Z,99.90
2019-02-04T17:01:17.681Z,99.90
2019-02-04T17:06:11.591Z,99.90
2019-02-04T17:11:08.650Z,99.90
2019-02-04T17:16:05.701Z,99.90
2019-02-04T17:21:05.567Z,99.90
2019-02-04T17:25:59.912Z,99.90
2019-02-04T17:30:57.923Z,99.90
2019-02-04T17:35:58.356Z,99.90
2019-02-04T17:40:52.918Z,99.90
2019-02-04T17:45:47.805Z,99.90
2019-02-04T17:50:42.733Z,99.90
2019-02-04T17:55:39.178Z,99.90
2019-02-04T18:00:34.842Z,99.90
2019-02-04T18:05:31.493Z,99.90
2019-02-04T18:10:27.706Z,99.90
2019-02-04T18:15:24.665Z,99.90
2019-02-04T18:20:18.736Z,99.90
2019-02-04T18:25:17.071Z,99.90
2019-02-04T18:30:18.057Z,99.90
2019-02-04T18:35:14.980Z,99.90
2019-02-04T18:40:20.868Z,99.90
2019-02-04T18:45:20.366Z,99.90
2019-02-04T18:50:20.958Z,99.90
2019-02-04T18:55:21.585Z,99.90
2019-02-04T19:00:25.513Z,99.90
2019-02-04T19:05:26.576Z,99.90
2019-02-04T19:10:22.080Z,99.90
2019-02-04T19:15:23.126Z,99.90
2019-02-04T19:20:20.185Z,99.90
2019-02-04T19:25:17.584Z,99.90
2019-02-04T19:30:32.305Z,99.90
2019-02-04T19:35:27.207Z,99.90
2019-02-04T19:40:22.868Z,99.90
2019-02-04T19:45:19.832Z,99.90
2019-02-04T19:50:21.800Z,99.90
2019-02-04T19:55:17.803Z,99.90
2019-02-04T20:00:20.576Z,99.90
2019-02-04T20:05:20.895Z,99.90
2019-02-04T20:10:20.065Z,99.90
2019-02-04T20:15:25.006Z,99.90
2019-02-04T20:20:21.342Z,99.90
2019-02-04T20:25:21.354Z,99.90
2019-02-04T20:30:20.336Z,99.90
2019-02-04T20:35:15.294Z,99.90
2019-02-04T20:40:21.372Z,99.90
2019-02-04T20:45:17.570Z,99.90
2019-02-04T20:50:18.356Z,99.90
2019-02-04T20:55:15.638Z,99.90
2019-02-04T21:00:16.322Z,99.90
2019-02-04T21:05:11.971Z,99.90
2019-02-04T21:10:12.213Z,99.90
2019-02-04T21:15:10.108Z,99.90
2019-02-04T21:20:07.599Z,99.90
2019-02-04T21:25:02.212Z,99.90
2019-02-04T21:29:57.471Z,99.90
2019-02-04T21:34:52.584Z,99.90
2019-02-04T21:39:47.535Z,99.90
2019-02-04T21:44:43.509Z,99.90
2019-02-04T21:49:38.292Z,99.90
2019-02-04T21:54:35.449Z,99.90
2019-02-04T21:59:30.334Z,99.90
2019-02-04T22:04:25.298Z,99.90
2019-02-04T22:09:21.777Z,99.90
2019-02-04T22:14:17.697Z,99.90
2019-02-04T22:19:12.372Z,99.90
2019-02-04T22:24:06.967Z,99.90
2019-02-04T22:29:01.428Z,99.90
2019-02-04T22:33:57.586Z,99.90
2019-02-04T22:38:53.925Z,99.90
2019-02-04T22:43:47.886Z,99.90
2019-02-04T22:48:43.292Z,99.90
2019-02-04T22:53:37.845Z,99.90
2019-02-04T22:58:32.919Z,99.90
2019-02-04T23:03:29.884Z,99.90
2019-02-04T23:08:27.127Z,99.90
2019-02-04T23:13:23.112Z,99.90
2019-02-04T23:18:17.616Z,99.90
2019-02-04T23:23:12.245Z,99.90
2019-02-04T23:28:06.821Z,99.90
2019-02-04T23:33:01.026Z,99.90
2019-02-04T23:37:55.845Z,99.90
2019-02-04T23:42:49.931Z,99.90
2019-02-04T23:47:48.128Z,99.90
2019-02-04T23:52:44.122Z,99.90
2019-02-04T23:57:39.725Z,99.90
